createdAt,value
2022-07-29T00:00:32.805Z,7.88
2022-07-29T00:03:00.485Z,7.95
2022-07-29T00:05:28.331Z,7.95
2022-07-29T00:07:56.162Z,7.32
2022-07-29T00:10:24.069Z,7.07
2022-07-29T00:12:51.712Z,7.30
2022-07-29T00:15:19.755Z,6.45
2022-07-29T00:17:48.692Z,7.22
2022-07-29T00:20:16.189Z,6.88
2022-07-29T00:22:43.814Z,8.07
2022-07-29T00:25:11.255Z,6.90
2022-07-29T00:27:38.824Z,6.53
2022-07-29T00:30:07.154Z,6.90
2022-07-29T00:32:34.801Z,7.15
2022-07-29T00:35:21.405Z,7.70
2022-07-29T00:37:52.790Z,7.60
2022-07-29T00:40:23.658Z,7.47
2022-07-29T00:42:52.413Z,8.20
2022-07-29T00:45:20.730Z,7.93
2022-07-29T00:47:48.594Z,8.05
2022-07-29T00:50:17.916Z,7.70
2022-07-29T00:52:45.555Z,8.10
2022-07-29T00:55:17.028Z,8.30
2022-07-29T00:57:44.953Z,8.25
2022-07-29T01:00:14.296Z,8.82
2022-07-29T01:02:41.992Z,7.95
2022-07-29T01:05:09.802Z,8.35
2022-07-29T01:07:39.133Z,8.50
2022-07-29T01:10:08.507Z,8.45
2022-07-29T01:12:36.689Z,8.57
2022-07-29T01:15:05.388Z,8.90
2022-07-29T01:17:35.137Z,8.70
2022-07-29T01:20:08.468Z,8.32
2022-07-29T01:22:45.237Z,9.18
2022-07-29T01:25:20.166Z,8.82
2022-07-29T01:27:52.983Z,9.07
2022-07-29T01:30:24.708Z,8.85
2022-07-29T01:32:54.004Z,8.57
2022-07-29T01:35:23.451Z,9.35
2022-07-29T01:37:53.994Z,9.25
2022-07-29T01:40:24.180Z,8.50
2022-07-29T01:42:53.633Z,8.55
2022-07-29T01:45:25.445Z,8.43
2022-07-29T01:47:56.456Z,7.90
2022-07-29T01:50:28.839Z,7.90
2022-07-29T01:52:58.238Z,8.38
2022-07-29T01:55:27.452Z,9.50
2022-07-29T01:57:56.249Z,8.85
2022-07-29T02:00:26.344Z,9.70
2022-07-29T02:02:55.197Z,9.98
2022-07-29T02:05:24.239Z,10.10
2022-07-29T02:07:52.457Z,9.25
2022-07-29T02:10:21.912Z,9.77
2022-07-29T02:12:54.927Z,9.88
2022-07-29T02:15:23.930Z,10.63
2022-07-29T02:17:55.241Z,10.73
2022-07-29T02:20:24.493Z,10.27
2022-07-29T02:22:53.211Z,10.30
2022-07-29T02:25:23.063Z,9.77
2022-07-29T02:27:53.142Z,8.95
2022-07-29T02:30:23.063Z,9.48
2022-07-29T02:32:53.839Z,10.15
2022-07-29T02:35:48.949Z,9.90
2022-07-29T02:38:35.281Z,10.80
2022-07-29T02:41:35.489Z,10.23
2022-07-29T02:44:11.456Z,10.30
2022-07-29T02:47:00.376Z,9.88
2022-07-29T02:49:50.460Z,10.35
2022-07-29T02:52:38.581Z,10.70
2022-07-29T02:55:40.300Z,11.50
2022-07-29T02:58:27.524Z,10.65
2022-07-29T03:01:09.280Z,11.07
2022-07-29T03:03:54.152Z,10.00
2022-07-29T03:06:38.713Z,10.68
2022-07-29T03:09:26.250Z,10.77
2022-07-29T03:12:15.235Z,10.48
2022-07-29T03:14:57.924Z,10.13
2022-07-29T03:17:57.161Z,10.98
2022-07-29T03:20:48.913Z,11.50
2022-07-29T03:23:37.427Z,10.82
2022-07-29T03:26:14.241Z,11.02
2022-07-29T03:32:01.354Z,11.18
2022-07-29T03:34:48.004Z,10.68
2022-07-29T03:37:56.300Z,11.50
2022-07-29T03:40:52.423Z,10.55
2022-07-29T03:43:54.124Z,10.75
2022-07-29T03:48:19.273Z,11.20
2022-07-29T03:49:54.632Z,11.43
2022-07-29T03:58:23.814Z,11.38
2022-07-29T04:01:22.453Z,11.45
2022-07-29T04:04:24.117Z,11.13
2022-07-29T04:07:24.074Z,12.25
2022-07-29T04:13:10.986Z,13.07
2022-07-29T04:16:13.660Z,12.20
2022-07-29T04:19:13.000Z,12.60
2022-07-29T04:31:37.566Z,10.80
2022-07-29T04:34:05.525Z,10.43
2022-07-29T04:36:33.168Z,10.38
2022-07-29T04:39:02.161Z,10.40
2022-07-29T04:41:32.770Z,11.50
2022-07-29T04:44:02.125Z,11.23
2022-07-29T04:46:30.136Z,10.93
2022-07-29T04:48:59.438Z,10.85
2022-07-29T04:51:27.172Z,10.93
2022-07-29T04:53:54.690Z,10.77
2022-07-29T04:56:22.394Z,11.68
2022-07-29T04:58:49.946Z,11.30
2022-07-29T05:01:17.536Z,11.35
2022-07-29T05:03:46.169Z,10.50
2022-07-29T05:06:15.032Z,11.43
2022-07-29T05:08:42.881Z,10.82
2022-07-29T05:11:11.779Z,12.10
2022-07-29T05:13:46.013Z,10.93
2022-07-29T05:16:15.122Z,11.50
2022-07-29T05:18:43.211Z,12.05
2022-07-29T05:21:10.902Z,11.52
2022-07-29T05:23:39.886Z,11.88
2022-07-29T05:26:07.575Z,11.63
2022-07-29T05:28:35.823Z,11.18
2022-07-29T05:31:03.493Z,10.55
2022-07-29T05:33:34.624Z,11.27
2022-07-29T05:36:06.573Z,10.32
2022-07-29T05:38:34.199Z,10.95
2022-07-29T05:41:03.202Z,10.80
2022-07-29T05:43:30.926Z,10.85
2022-07-29T05:45:59.093Z,10.77
2022-07-29T05:48:26.721Z,10.85
2022-07-29T05:50:54.473Z,11.68
2022-07-29T05:53:22.826Z,10.48
2022-07-29T05:55:50.938Z,11.13
2022-07-29T05:58:19.928Z,10.73
2022-07-29T06:00:48.345Z,10.95
2022-07-29T06:03:15.930Z,10.98
2022-07-29T06:05:43.497Z,12.05
2022-07-29T06:08:11.147Z,11.25
2022-07-29T06:10:38.789Z,11.82
2022-07-29T06:13:06.414Z,10.68
2022-07-29T06:15:35.411Z,10.88
2022-07-29T06:18:03.169Z,10.98
2022-07-29T06:20:31.821Z,10.02
2022-07-29T06:22:59.841Z,9.82
2022-07-29T06:25:27.450Z,10.68
2022-07-29T06:27:55.013Z,10.65
2022-07-29T06:30:22.999Z,10.32
2022-07-29T06:32:51.951Z,10.10
2022-07-29T06:35:38.282Z,11.02
2022-07-29T06:38:09.566Z,10.40
2022-07-29T06:41:04.804Z,10.55
2022-07-29T06:43:34.860Z,10.98
2022-07-29T06:46:03.605Z,11.52
2022-07-29T06:48:32.887Z,9.93
2022-07-29T06:51:00.627Z,10.05
2022-07-29T06:53:28.157Z,10.60
2022-07-29T06:55:55.756Z,8.80
2022-07-29T06:58:23.528Z,8.10
2022-07-29T07:00:51.332Z,7.60
2022-07-29T07:03:19.301Z,7.35
2022-07-29T07:05:48.687Z,6.47
2022-07-29T07:08:17.178Z,6.65
2022-07-29T07:10:45.106Z,6.28
2022-07-29T07:13:12.947Z,6.70
2022-07-29T07:15:40.774Z,5.47
2022-07-29T07:18:08.908Z,5.03
2022-07-29T07:20:36.805Z,6.00
2022-07-29T07:23:06.100Z,5.60
2022-07-29T07:25:33.765Z,5.53
2022-07-29T07:28:05.509Z,5.35
2022-07-29T07:30:33.133Z,5.88
2022-07-29T07:33:01.666Z,5.80
2022-07-29T07:35:29.529Z,5.20
2022-07-29T07:37:57.233Z,4.80
2022-07-29T07:40:26.720Z,4.80
2022-07-29T07:42:54.446Z,4.95
2022-07-29T07:45:22.183Z,4.75
2022-07-29T07:47:49.775Z,4.25
2022-07-29T07:50:19.193Z,4.38
2022-07-29T07:52:50.933Z,4.78
2022-07-29T07:55:18.545Z,4.32
2022-07-29T07:57:47.603Z,4.38
2022-07-29T08:00:16.056Z,3.72
2022-07-29T08:02:44.401Z,3.95
2022-07-29T08:05:13.104Z,4.00
2022-07-29T08:07:40.808Z,3.10
2022-07-29T08:10:08.867Z,4.20
2022-07-29T08:12:36.465Z,3.83
2022-07-29T08:15:09.510Z,4.10
2022-07-29T08:17:37.240Z,3.65
2022-07-29T08:20:05.206Z,3.70
2022-07-29T08:22:33.362Z,3.67
2022-07-29T08:25:00.962Z,4.38
2022-07-29T08:27:46.010Z,3.92
2022-07-29T08:30:15.291Z,3.95
2022-07-29T08:32:53.652Z,4.00
2022-07-29T08:35:22.544Z,3.70
2022-07-29T08:37:50.286Z,3.60
2022-07-29T08:40:18.272Z,4.00
2022-07-29T08:42:46.015Z,3.90
2022-07-29T08:45:14.972Z,3.92
2022-07-29T08:47:42.787Z,3.95
2022-07-29T08:50:10.865Z,4.07
2022-07-29T08:52:39.362Z,4.30
2022-07-29T08:55:08.544Z,3.72
2022-07-29T08:57:37.223Z,4.40
2022-07-29T09:00:08.153Z,4.72
2022-07-29T09:02:43.408Z,4.10
2022-07-29T09:05:14.526Z,4.30
2022-07-29T09:07:44.225Z,4.07
2022-07-29T09:10:12.097Z,4.35
2022-07-29T09:12:40.400Z,4.07
2022-07-29T09:15:08.391Z,4.00
2022-07-29T09:17:44.057Z,3.97
2022-07-29T09:20:12.535Z,4.00
2022-07-29T09:22:42.000Z,4.25
2022-07-29T09:25:10.456Z,4.22
2022-07-29T09:27:38.271Z,3.80
2022-07-29T09:30:07.021Z,3.65
2022-07-29T09:32:35.040Z,7.07
2022-07-29T09:35:23.286Z,3.60
2022-07-29T09:37:51.407Z,4.15
2022-07-29T09:40:19.881Z,3.78
2022-07-29T09:42:48.200Z,3.95
2022-07-29T09:45:27.650Z,4.15
2022-07-29T09:47:56.674Z,4.20
2022-07-29T09:50:36.558Z,4.18
2022-07-29T09:53:04.235Z,4.13
2022-07-29T09:55:31.833Z,3.90
2022-07-29T09:58:14.499Z,4.15
2022-07-29T10:00:43.803Z,4.40
2022-07-29T10:03:13.437Z,4.10
2022-07-29T10:05:43.058Z,3.92
2022-07-29T10:08:11.070Z,3.90
2022-07-29T10:10:39.814Z,4.70
2022-07-29T10:13:15.373Z,4.10
2022-07-29T10:15:46.053Z,4.38
2022-07-29T10:18:18.438Z,3.72
2022-07-29T10:20:47.636Z,4.40
2022-07-29T10:25:52.478Z,4.10
2022-07-29T10:28:20.242Z,4.07
2022-07-29T10:30:52.417Z,3.70
2022-07-29T10:33:29.306Z,3.80
2022-07-29T10:36:04.331Z,4.00
2022-07-29T10:38:52.663Z,4.13
2022-07-29T10:41:44.245Z,4.28
2022-07-29T10:44:23.203Z,4.03
2022-07-29T10:46:51.740Z,3.97
2022-07-29T10:49:25.176Z,3.88
2022-07-29T10:51:56.031Z,4.20
2022-07-29T10:54:54.691Z,4.18
2022-07-29T10:57:25.684Z,4.05
2022-07-29T11:00:33.823Z,4.18
2022-07-29T11:03:10.476Z,4.50
2022-07-29T11:05:54.651Z,4.70
2022-07-29T11:08:27.774Z,4.55
2022-07-29T11:11:10.758Z,4.38
2022-07-29T11:13:52.330Z,5.10
2022-07-29T11:16:23.082Z,4.70
2022-07-29T11:19:11.587Z,4.80
2022-07-29T11:21:55.171Z,4.50
2022-07-29T11:24:35.685Z,4.80
2022-07-29T11:30:07.369Z,4.93
2022-07-29T11:32:38.244Z,4.75
2022-07-29T11:38:23.204Z,5.03
2022-07-29T11:41:06.009Z,4.75
2022-07-29T11:43:50.635Z,5.30
2022-07-29T11:46:50.392Z,5.10
2022-07-29T11:49:22.094Z,6.07
2022-07-29T11:52:05.013Z,6.97
2022-07-29T11:54:57.215Z,52.10
2022-07-29T11:57:22.488Z,25.63
2022-07-29T11:59:52.276Z,11.05
2022-07-29T12:02:37.555Z,8.23
2022-07-29T12:05:11.077Z,9.25
2022-07-29T12:07:01.567Z,4.53
2022-07-29T12:07:41.258Z,10.68
2022-07-29T12:10:19.536Z,10.20
2022-07-29T12:12:57.485Z,10.13
2022-07-29T12:15:45.644Z,9.30
2022-07-29T12:18:18.708Z,8.30
2022-07-29T12:20:46.774Z,8.90
2022-07-29T12:23:14.542Z,9.65
2022-07-29T12:25:44.625Z,9.05
2022-07-29T12:28:26.417Z,9.68
2022-07-29T12:30:56.158Z,9.63
2022-07-29T12:33:24.437Z,10.27
2022-07-29T12:36:06.119Z,10.70
2022-07-29T12:38:36.187Z,10.23
2022-07-29T12:41:04.746Z,9.98
2022-07-29T12:43:34.547Z,10.55
2022-07-29T12:46:14.687Z,11.23
2022-07-29T12:48:43.163Z,11.35
2022-07-29T12:51:12.740Z,11.50
2022-07-29T12:53:40.685Z,11.55
2022-07-29T12:56:26.617Z,10.95
2022-07-29T12:58:56.577Z,9.90
2022-07-29T13:01:26.969Z,10.10
2022-07-29T13:03:56.844Z,9.10
2022-07-29T13:06:35.270Z,9.60
2022-07-29T13:09:07.953Z,9.45
2022-07-29T13:11:36.129Z,9.40
2022-07-29T13:14:05.897Z,8.82
2022-07-29T13:16:36.314Z,8.00
2022-07-29T13:19:13.991Z,7.18
2022-07-29T13:21:41.919Z,7.30
2022-07-29T13:24:09.903Z,6.88
2022-07-29T13:26:41.702Z,6.97
2022-07-29T13:29:09.327Z,6.93
2022-07-29T13:31:38.556Z,5.75
2022-07-29T13:34:06.238Z,6.20
2022-07-29T13:36:38.719Z,5.70
2022-07-29T13:39:08.972Z,5.10
2022-07-29T13:41:36.648Z,4.93
2022-07-29T13:44:04.662Z,4.57
2022-07-29T13:46:32.512Z,4.68
2022-07-29T13:49:01.611Z,6.40
2022-07-29T13:51:29.254Z,5.65
2022-07-29T13:53:56.809Z,6.32
2022-07-29T13:56:24.377Z,6.88
2022-07-29T13:58:52.254Z,6.45
2022-07-29T14:01:21.681Z,6.00
2022-07-29T14:03:49.433Z,6.00
2022-07-29T14:06:18.516Z,5.90
2022-07-29T14:08:49.932Z,6.65
2022-07-29T14:11:17.718Z,6.18
2022-07-29T14:13:45.291Z,5.93
2022-07-29T14:16:13.012Z,6.28
2022-07-29T14:18:40.687Z,5.85
2022-07-29T14:21:08.442Z,6.53
2022-07-29T14:23:37.594Z,6.28
2022-07-29T14:26:13.187Z,6.60
2022-07-29T14:28:44.805Z,5.88
2022-07-29T14:31:12.542Z,6.20
2022-07-29T14:33:40.318Z,6.88
2022-07-29T14:36:07.921Z,6.93
2022-07-29T14:38:38.234Z,6.53
2022-07-29T14:41:06.105Z,6.82
2022-07-29T14:43:33.670Z,7.38
2022-07-29T14:46:05.189Z,6.50
2022-07-29T14:48:36.159Z,6.50
2022-07-29T14:51:05.113Z,6.47
2022-07-29T14:53:33.129Z,6.20
2022-07-29T14:56:15.266Z,6.43
2022-07-29T14:58:51.682Z,6.38
2022-07-29T15:01:19.770Z,6.28
2022-07-29T15:03:47.514Z,6.40
2022-07-29T15:06:15.269Z,6.13
2022-07-29T15:08:43.253Z,6.40
2022-07-29T15:11:12.510Z,6.45
2022-07-29T15:13:40.198Z,6.25
2022-07-29T15:16:08.062Z,6.22
2022-07-29T15:18:35.893Z,6.68
2022-07-29T15:21:07.390Z,6.85
2022-07-29T15:23:36.504Z,6.70
2022-07-29T15:26:04.717Z,7.18
2022-07-29T15:28:34.495Z,6.45
2022-07-29T15:31:01.989Z,6.38
2022-07-29T15:33:30.239Z,7.22
2022-07-29T15:35:57.866Z,6.72
2022-07-29T15:38:28.950Z,6.78
2022-07-29T15:40:57.868Z,6.65
2022-07-29T15:43:26.511Z,6.97
2022-07-29T15:46:15.725Z,6.82
2022-07-29T15:48:44.499Z,6.10
2022-07-29T15:51:12.376Z,5.90
2022-07-29T15:53:40.112Z,6.05
2022-07-29T15:56:07.785Z,6.97
2022-07-29T15:58:35.448Z,6.45
2022-07-29T16:01:04.581Z,6.30
2022-07-29T16:03:33.473Z,6.25
2022-07-29T16:06:01.386Z,6.63
2022-07-29T16:08:29.065Z,6.05
2022-07-29T16:10:56.921Z,5.63
2022-07-29T16:13:43.105Z,5.13
2022-07-29T16:19:48.088Z,6.35
2022-07-29T16:22:37.028Z,6.00
2022-07-29T16:25:06.753Z,5.53
2022-07-29T16:27:59.789Z,5.63
2022-07-29T16:30:39.271Z,6.00
2022-07-29T16:33:08.451Z,5.60
2022-07-29T16:36:37.817Z,5.40
2022-07-29T16:39:10.484Z,11.10
2022-07-29T16:48:46.456Z,24.42
2022-07-29T16:51:27.124Z,25.60
2022-07-29T16:54:01.814Z,35.17
2022-07-29T16:56:33.233Z,24.80
2022-07-29T16:59:08.802Z,18.35
2022-07-29T17:01:44.553Z,20.55
2022-07-29T17:04:24.439Z,15.75
2022-07-29T17:06:55.537Z,11.68
2022-07-29T17:09:23.543Z,8.80
2022-07-29T17:11:55.900Z,6.85
2022-07-29T17:14:24.936Z,7.95
2022-07-29T17:17:13.670Z,6.72
2022-07-29T17:19:53.735Z,6.38
2022-07-29T17:22:23.827Z,6.60
2022-07-29T17:24:51.786Z,8.85
2022-07-29T17:27:45.216Z,6.82
2022-07-29T17:30:13.274Z,6.82
2022-07-29T17:32:41.120Z,9.38
2022-07-29T17:35:29.734Z,10.93
2022-07-29T17:37:57.783Z,25.35
2022-07-29T17:40:25.655Z,17.67
2022-07-29T17:43:02.286Z,8.63
2022-07-29T17:45:48.891Z,6.20
2022-07-29T17:48:27.387Z,5.45
2022-07-29T17:50:55.386Z,5.90
2022-07-29T17:53:23.154Z,5.32
2022-07-29T17:56:02.003Z,5.00
2022-07-29T17:58:31.284Z,5.68
2022-07-29T18:00:59.284Z,6.43
2022-07-29T18:03:27.466Z,5.57
2022-07-29T18:05:57.523Z,5.85
2022-07-29T18:08:31.195Z,6.43
2022-07-29T18:11:01.656Z,5.60
2022-07-29T18:13:34.435Z,5.13
2022-07-29T18:16:04.469Z,4.97
2022-07-29T18:18:32.345Z,5.20
2022-07-29T18:21:02.056Z,5.50
2022-07-29T18:23:30.008Z,5.10
2022-07-29T18:26:00.571Z,5.22
2022-07-29T18:28:29.049Z,5.10
2022-07-29T18:30:58.236Z,5.40
2022-07-29T18:33:26.125Z,4.70
2022-07-29T18:36:11.659Z,5.93
2022-07-29T18:38:40.249Z,5.97
2022-07-29T18:41:11.423Z,6.00
2022-07-29T18:43:39.789Z,5.45
2022-07-29T18:46:16.033Z,5.43
2022-07-29T18:48:43.830Z,5.10
2022-07-29T18:51:11.655Z,5.03
2022-07-29T18:53:41.528Z,5.38
2022-07-29T18:56:10.359Z,4.90
2022-07-29T18:58:39.038Z,5.40
2022-07-29T19:01:16.128Z,5.35
2022-07-29T19:03:44.564Z,5.18
2022-07-29T19:06:12.207Z,5.28
2022-07-29T19:08:42.092Z,5.07
2022-07-29T19:11:10.159Z,5.68
2022-07-29T19:13:40.163Z,5.70
2022-07-29T19:16:22.779Z,5.95
2022-07-29T19:18:55.106Z,6.10
2022-07-29T19:21:24.937Z,5.95
2022-07-29T19:24:05.821Z,5.63
2022-07-29T19:26:43.954Z,5.35
2022-07-29T19:29:11.800Z,5.60
2022-07-29T19:31:39.794Z,5.55
2022-07-29T19:34:11.986Z,6.10
2022-07-29T19:36:40.064Z,5.80
2022-07-29T19:39:07.995Z,5.97
2022-07-29T19:41:45.882Z,5.75
2022-07-29T19:44:16.790Z,6.15
2022-07-29T19:46:45.437Z,6.30
2022-07-29T19:49:14.914Z,5.88
2022-07-29T19:51:42.757Z,5.28
2022-07-29T19:54:14.353Z,5.70
2022-07-29T19:56:44.205Z,5.50
2022-07-29T19:59:17.097Z,5.88
2022-07-29T20:01:47.976Z,6.10
2022-07-29T20:04:17.056Z,6.00
2022-07-29T20:06:45.411Z,5.47
2022-07-29T20:09:20.657Z,5.90
2022-07-29T20:11:48.913Z,6.68
2022-07-29T20:14:18.264Z,5.57
2022-07-29T20:16:57.513Z,6.05
2022-07-29T20:19:26.593Z,7.20
2022-07-29T20:21:54.729Z,6.93
2022-07-29T20:24:37.677Z,7.75
2022-07-29T20:27:13.641Z,6.88
2022-07-29T20:29:46.928Z,7.47
2022-07-29T20:32:17.087Z,7.43
2022-07-29T20:34:46.605Z,7.28
2022-07-29T20:37:16.160Z,7.82
2022-07-29T20:40:07.987Z,7.88
2022-07-29T20:42:40.782Z,7.90
2022-07-29T20:45:24.845Z,8.63
2022-07-29T20:47:52.827Z,7.97
2022-07-29T20:50:24.332Z,7.90
2022-07-29T20:52:52.538Z,8.60
2022-07-29T20:55:20.351Z,8.65
2022-07-29T20:57:48.083Z,8.15
2022-07-29T21:00:35.476Z,7.88
2022-07-29T21:03:14.931Z,8.57
2022-07-29T21:05:45.650Z,7.60
2022-07-29T21:08:13.303Z,8.52
2022-07-29T21:10:41.845Z,8.63
2022-07-29T21:13:23.097Z,9.27
2022-07-29T21:15:51.878Z,9.52
2022-07-29T21:18:37.631Z,8.93
2022-07-29T21:21:18.146Z,8.30
2022-07-29T21:26:36.668Z,8.70
2022-07-29T21:29:03.425Z,9.30
2022-07-29T21:31:31.051Z,8.32
2022-07-29T21:33:58.691Z,9.45
2022-07-29T21:36:53.452Z,9.85
2022-07-29T21:39:21.158Z,9.95
2022-07-29T21:41:48.827Z,9.90
2022-07-29T21:44:16.424Z,10.02
2022-07-29T21:46:50.926Z,10.18
2022-07-29T21:49:25.362Z,10.02
2022-07-29T21:52:19.980Z,9.50
2022-07-29T21:55:01.987Z,9.85
2022-07-29T21:57:30.288Z,9.48
2022-07-29T22:00:04.596Z,9.40
2022-07-29T22:02:37.828Z,10.02
2022-07-29T22:05:06.091Z,10.13
2022-07-29T22:07:56.052Z,10.40
2022-07-29T22:10:44.642Z,10.00
2022-07-29T22:13:30.760Z,10.63
2022-07-29T22:15:58.694Z,9.85
2022-07-29T22:18:52.358Z,9.73
2022-07-29T22:21:24.383Z,9.18
2022-07-29T22:26:28.483Z,9.63
2022-07-29T22:28:58.729Z,9.68
2022-07-29T22:31:31.665Z,9.80
2022-07-29T22:34:00.814Z,10.15
2022-07-29T22:36:29.140Z,9.80
2022-07-29T22:38:57.236Z,9.20
2022-07-29T22:41:32.345Z,9.90
2022-07-29T22:44:01.300Z,9.95
2022-07-29T22:46:29.208Z,9.02
2022-07-29T22:49:02.011Z,9.25
2022-07-29T22:51:34.352Z,8.80
2022-07-29T22:54:20.119Z,9.93
2022-07-29T22:56:51.984Z,9.57
2022-07-29T22:59:28.814Z,9.55
2022-07-29T23:02:04.552Z,9.77
2022-07-29T23:04:34.320Z,9.35
2022-07-29T23:07:20.419Z,8.20
2022-07-29T23:09:48.539Z,7.72
2022-07-29T23:12:21.965Z,7.63
2022-07-29T23:14:55.060Z,6.97
2022-07-29T23:17:24.470Z,6.97
2022-07-29T23:20:05.190Z,7.07
2022-07-29T23:22:42.988Z,7.13
2022-07-29T23:25:16.684Z,6.65
2022-07-29T23:27:50.374Z,6.55
2022-07-29T23:30:30.152Z,6.95
2022-07-29T23:33:09.306Z,6.88
2022-07-29T23:35:40.738Z,7.93
2022-07-29T23:38:11.615Z,7.57
2022-07-29T23:40:40.956Z,7.30
2022-07-29T23:43:16.698Z,7.32
2022-07-29T23:45:48.652Z,6.60
2022-07-29T23:48:20.559Z,7.10
2022-07-29T23:50:52.799Z,6.93
2022-07-29T23:53:25.285Z,7.18
2022-07-29T23:55:58.356Z,7.53
2022-07-29T23:58:37.864Z,6.88
